sensor_id;sensor_type;location;lat;lon;timestamp;pressure;altitude;pressure_sealevel;temperature;humidity
2711;BME280;20721;47.402;8.550;2022-12-24T00:00:11;95846;;;13.44;62.12
2711;BME280;20721;47.402;8.550;2022-12-24T00:01:11;95852;;;13.37;62.21
2711;BME280;20721;47.402;8.550;2022-12-24T00:02:11;95856;;;13.20;62.68
2711;BME280;20721;47.402;8.550;2022-12-24T00:03:13;95852;;;13.13;63.04
2711;BME280;20721;47.402;8.550;2022-12-24T00:04:11;95847;;;13.09;63.41
2711;BME280;20721;47.402;8.550;2022-12-24T00:05:11;95845;;;13.02;63.78
2711;BME280;20721;47.402;8.550;2022-12-24T00:06:15;95840;;;13.05;63.79
2711;BME280;20721;47.402;8.550;2022-12-24T00:07:11;95844;;;13.04;63.98
2711;BME280;20721;47.402;8.550;2022-12-24T00:08:11;95842;;;13.11;63.88
2711;BME280;20721;47.402;8.550;2022-12-24T00:09:11;95849;;;13.02;64.44
2711;BME280;20721;47.402;8.550;2022-12-24T00:10:11;95846;;;12.97;64.76
2711;BME280;20721;47.402;8.550;2022-12-24T00:11:11;95845;;;12.83;65.37
2711;BME280;20721;47.402;8.550;2022-12-24T00:12:11;95848;;;12.78;65.80
2711;BME280;20721;47.402;8.550;2022-12-24T00:14:11;95854;;;12.60;66.60
2711;BME280;20721;47.402;8.550;2022-12-24T00:15:11;95855;;;12.67;66.43
2711;BME280;20721;47.402;8.550;2022-12-24T00:16:11;95857;;;12.65;66.65
2711;BME280;20721;47.402;8.550;2022-12-24T00:17:11;95853;;;12.71;66.60
2711;BME280;20721;47.402;8.550;2022-12-24T00:18:11;95855;;;12.82;66.37
2711;BME280;20721;47.402;8.550;2022-12-24T00:19:11;95862;;;12.96;66.00
2711;BME280;20721;47.402;8.550;2022-12-24T00:20:11;95861;;;13.08;65.64
2711;BME280;20721;47.402;8.550;2022-12-24T00:21:11;95862;;;13.19;65.27
2711;BME280;20721;47.402;8.550;2022-12-24T00:22:11;95864;;;13.27;64.99
2711;BME280;20721;47.402;8.550;2022-12-24T00:23:11;95865;;;13.32;64.85
2711;BME280;20721;47.402;8.550;2022-12-24T00:25:11;95862;;;13.36;64.82
2711;BME280;20721;47.402;8.550;2022-12-24T00:26:11;95863;;;13.35;64.85
2711;BME280;20721;47.402;8.550;2022-12-24T00:28:11;95861;;;13.38;64.81
2711;BME280;20721;47.402;8.550;2022-12-24T00:29:11;95864;;;13.40;64.79
2711;BME280;20721;47.402;8.550;2022-12-24T00:30:11;95871;;;13.44;64.72
2711;BME280;20721;47.402;8.550;2022-12-24T00:31:12;95875;;;13.37;64.78
2711;BME280;20721;47.402;8.550;2022-12-24T00:33:11;95874;;;13.41;64.76
2711;BME280;20721;47.402;8.550;2022-12-24T00:34:11;95878;;;13.47;64.64
2711;BME280;20721;47.402;8.550;2022-12-24T00:35:11;95873;;;13.55;64.45
2711;BME280;20721;47.402;8.550;2022-12-24T00:36:11;95875;;;13.57;64.20
2711;BME280;20721;47.402;8.550;2022-12-24T00:37:11;95877;;;13.61;63.95
2711;BME280;20721;47.402;8.550;2022-12-24T00:38:11;95879;;;13.66;63.79
2711;BME280;20721;47.402;8.550;2022-12-24T00:40:13;95887;;;13.62;63.80
2711;BME280;20721;47.402;8.550;2022-12-24T00:41:21;95893;;;13.58;63.82
2711;BME280;20721;47.402;8.550;2022-12-24T00:42:11;95895;;;13.55;63.77
2711;BME280;20721;47.402;8.550;2022-12-24T00:43:11;95897;;;13.47;63.70
2711;BME280;20721;47.402;8.550;2022-12-24T00:45:11;95897;;;13.45;63.90
2711;BME280;20721;47.402;8.550;2022-12-24T00:46:11;95893;;;13.48;63.87
2711;BME280;20721;47.402;8.550;2022-12-24T00:48:11;95893;;;13.42;63.83
2711;BME280;20721;47.402;8.550;2022-12-24T00:49:11;95890;;;13.44;63.93
2711;BME280;20721;47.402;8.550;2022-12-24T00:50:11;95896;;;13.50;63.89
2711;BME280;20721;47.402;8.550;2022-12-24T00:51:11;95895;;;13.53;63.46
2711;BME280;20721;47.402;8.550;2022-12-24T00:52:11;95905;;;13.57;63.41
2711;BME280;20721;47.402;8.550;2022-12-24T00:53:11;95901;;;13.62;63.31
2711;BME280;20721;47.402;8.550;2022-12-24T00:54:11;95903;;;13.63;63.19
2711;BME280;20721;47.402;8.550;2022-12-24T00:55:11;95900;;;13.46;63.23
2711;BME280;20721;47.402;8.550;2022-12-24T00:56:11;95897;;;13.39;63.40
2711;BME280;20721;47.402;8.550;2022-12-24T00:57:11;95897;;;13.33;63.53
2711;BME280;20721;47.402;8.550;2022-12-24T00:59:11;95897;;;13.32;63.61
2711;BME280;20721;47.402;8.550;2022-12-24T01:00:11;95898;;;13.25;63.85
2711;BME280;20721;47.402;8.550;2022-12-24T01:01:11;95896;;;13.23;63.74
2711;BME280;20721;47.402;8.550;2022-12-24T01:02:11;95898;;;13.26;63.75
2711;BME280;20721;47.402;8.550;2022-12-24T01:03:11;95892;;;13.18;63.87
2711;BME280;20721;47.402;8.550;2022-12-24T01:04:21;95891;;;13.16;63.90
2711;BME280;20721;47.402;8.550;2022-12-24T01:05:11;95884;;;13.09;64.14
2711;BME280;20721;47.402;8.550;2022-12-24T01:06:12;95887;;;13.06;64.29
2711;BME280;20721;47.402;8.550;2022-12-24T01:07:11;95886;;;13.07;64.44
2711;BME280;20721;47.402;8.550;2022-12-24T01:08:11;95895;;;13.11;64.05
2711;BME280;20721;47.402;8.550;2022-12-24T01:10:12;95902;;;13.07;63.91
2711;BME280;20721;47.402;8.550;2022-12-24T01:11:11;95908;;;13.10;63.91
2711;BME280;20721;47.402;8.550;2022-12-24T01:12:11;95911;;;13.12;63.86
2711;BME280;20721;47.402;8.550;2022-12-24T01:13:11;95914;;;13.16;63.93
2711;BME280;20721;47.402;8.550;2022-12-24T01:14:11;95924;;;13.21;63.76
2711;BME280;20721;47.402;8.550;2022-12-24T01:15:12;95922;;;13.20;63.52
2711;BME280;20721;47.402;8.550;2022-12-24T01:16:17;95927;;;13.14;63.71
2711;BME280;20721;47.402;8.550;2022-12-24T01:17:13;95923;;;13.16;63.71
2711;BME280;20721;47.402;8.550;2022-12-24T01:18:11;95924;;;13.20;63.60
2711;BME280;20721;47.402;8.550;2022-12-24T01:19:11;95922;;;13.27;63.60
2711;BME280;20721;47.402;8.550;2022-12-24T01:20:12;95924;;;13.33;63.24
2711;BME280;20721;47.402;8.550;2022-12-24T01:21:11;95925;;;13.22;63.21
2711;BME280;20721;47.402;8.550;2022-12-24T01:22:11;95925;;;13.18;63.47
2711;BME280;20721;47.402;8.550;2022-12-24T01:23:11;95924;;;13.22;63.52
2711;BME280;20721;47.402;8.550;2022-12-24T01:24:13;95930;;;13.25;63.24
2711;BME280;20721;47.402;8.550;2022-12-24T01:25:11;95929;;;13.29;63.08
2711;BME280;20721;47.402;8.550;2022-12-24T01:26:11;95932;;;13.21;62.89
2711;BME280;20721;47.402;8.550;2022-12-24T01:27:11;95932;;;13.25;63.01
2711;BME280;20721;47.402;8.550;2022-12-24T01:28:11;95931;;;13.24;62.97
2711;BME280;20721;47.402;8.550;2022-12-24T01:29:11;95929;;;13.18;63.02
2711;BME280;20721;47.402;8.550;2022-12-24T01:30:12;95932;;;13.09;63.40
2711;BME280;20721;47.402;8.550;2022-12-24T01:31:13;95931;;;13.10;63.21
2711;BME280;20721;47.402;8.550;2022-12-24T01:32:11;95930;;;12.98;63.40
2711;BME280;20721;47.402;8.550;2022-12-24T01:33:11;95933;;;12.96;63.62
2711;BME280;20721;47.402;8.550;2022-12-24T01:34:11;95933;;;12.91;63.78
2711;BME280;20721;47.402;8.550;2022-12-24T01:35:11;95937;;;12.84;64.05
2711;BME280;20721;47.402;8.550;2022-12-24T01:36:12;95938;;;12.91;64.02
2711;BME280;20721;47.402;8.550;2022-12-24T01:37:11;95939;;;12.92;63.93
2711;BME280;20721;47.402;8.550;2022-12-24T01:38:11;95937;;;12.99;63.79
2711;BME280;20721;47.402;8.550;2022-12-24T01:39:11;95939;;;12.94;63.95
2711;BME280;20721;47.402;8.550;2022-12-24T01:40:24;95938;;;12.85;63.81
2711;BME280;20721;47.402;8.550;2022-12-24T01:41:21;95943;;;12.84;63.93
2711;BME280;20721;47.402;8.550;2022-12-24T01:42:22;95936;;;12.78;63.96
2711;BME280;20721;47.402;8.550;2022-12-24T01:43:21;95943;;;12.83;64.06
2711;BME280;20721;47.402;8.550;2022-12-24T01:44:28;95939;;;12.89;63.97
2711;BME280;20721;47.402;8.550;2022-12-24T01:47:13;95936;;;13.07;63.26
2711;BME280;20721;47.402;8.550;2022-12-24T01:48:13;95934;;;13.10;63.25
2711;BME280;20721;47.402;8.550;2022-12-24T01:49:13;95934;;;13.14;63.24
2711;BME280;20721;47.402;8.550;2022-12-24T01:50:12;95930;;;13.21;63.06
2711;BME280;20721;47.402;8.550;2022-12-24T01:51:14;95936;;;13.23;62.67
2711;BME280;20721;47.402;8.550;2022-12-24T01:52:19;95944;;;13.24;62.92
2711;BME280;20721;47.402;8.550;2022-12-24T01:54:16;95951;;;13.26;62.58
2711;BME280;20721;47.402;8.550;2022-12-24T01:55:12;95948;;;13.30;62.52
2711;BME280;20721;47.402;8.550;2022-12-24T01:56:11;95942;;;13.26;62.21
2711;BME280;20721;47.402;8.550;2022-12-24T01:57:14;95942;;;13.24;62.35
2711;BME280;20721;47.402;8.550;2022-12-24T01:58:12;95947;;;13.19;62.45
2711;BME280;20721;47.402;8.550;2022-12-24T01:59:12;95941;;;13.20;62.57
2711;BME280;20721;47.402;8.550;2022-12-24T02:00:12;95945;;;13.17;62.19
2711;BME280;20721;47.402;8.550;2022-12-24T02:01:11;95952;;;13.19;62.35
2711;BME280;20721;47.402;8.550;2022-12-24T02:02:11;95957;;;13.25;62.27
2711;BME280;20721;47.402;8.550;2022-12-24T02:03:11;95964;;;13.30;61.94
2711;BME280;20721;47.402;8.550;2022-12-24T02:04:16;95961;;;13.18;61.67
2711;BME280;20721;47.402;8.550;2022-12-24T02:05:16;95965;;;13.12;61.92
2711;BME280;20721;47.402;8.550;2022-12-24T02:06:14;95963;;;13.14;61.98
2711;BME280;20721;47.402;8.550;2022-12-24T02:07:11;95966;;;13.19;61.89
2711;BME280;20721;47.402;8.550;2022-12-24T02:08:11;95971;;;13.22;61.71
2711;BME280;20721;47.402;8.550;2022-12-24T02:10:12;95972;;;13.21;61.71
2711;BME280;20721;47.402;8.550;2022-12-24T02:11:12;95970;;;13.14;61.55
2711;BME280;20721;47.402;8.550;2022-12-24T02:13:12;95975;;;13.19;62.02
2711;BME280;20721;47.402;8.550;2022-12-24T02:14:11;95975;;;13.25;61.81
2711;BME280;20721;47.402;8.550;2022-12-24T02:15:12;95977;;;13.29;61.40
2711;BME280;20721;47.402;8.550;2022-12-24T02:23:25;95967;;;13.30;60.57
2711;BME280;20721;47.402;8.550;2022-12-24T02:26:17;95971;;;13.05;60.60
2711;BME280;20721;47.402;8.550;2022-12-24T02:30:13;95985;;;12.94;60.93
2711;BME280;20721;47.402;8.550;2022-12-24T02:31:15;95984;;;12.88;61.10
2711;BME280;20721;47.402;8.550;2022-12-24T02:32:19;95987;;;12.86;61.39
2711;BME280;20721;47.402;8.550;2022-12-24T02:33:13;95993;;;12.71;61.62
2711;BME280;20721;47.402;8.550;2022-12-24T02:34:14;95993;;;12.62;61.94
2711;BME280;20721;47.402;8.550;2022-12-24T02:35:18;95994;;;12.51;62.46
2711;BME280;20721;47.402;8.550;2022-12-24T02:36:12;95994;;;12.47;62.85
2711;BME280;20721;47.402;8.550;2022-12-24T02:37:14;96000;;;12.55;62.85
2711;BME280;20721;47.402;8.550;2022-12-24T02:38:13;96005;;;12.60;62.80
2711;BME280;20721;47.402;8.550;2022-12-24T02:39:14;96001;;;12.66;62.64
2711;BME280;20721;47.402;8.550;2022-12-24T02:40:20;96004;;;12.60;62.67
2711;BME280;20721;47.402;8.550;2022-12-24T02:41:29;96004;;;12.63;62.88
2711;BME280;20721;47.402;8.550;2022-12-24T02:42:11;96008;;;12.66;62.80
2711;BME280;20721;47.402;8.550;2022-12-24T02:43:12;96006;;;12.57;62.75
2711;BME280;20721;47.402;8.550;2022-12-24T02:44:11;96008;;;12.53;63.13
2711;BME280;20721;47.402;8.550;2022-12-24T02:45:14;96008;;;12.64;62.98
2711;BME280;20721;47.402;8.550;2022-12-24T02:46:14;96006;;;12.62;62.93
2711;BME280;20721;47.402;8.550;2022-12-24T02:47:11;96004;;;12.66;62.89
2711;BME280;20721;47.402;8.550;2022-12-24T02:48:12;96006;;;12.62;62.92
2711;BME280;20721;47.402;8.550;2022-12-24T02:49:11;96006;;;12.63;62.84
2711;BME280;20721;47.402;8.550;2022-12-24T02:50:12;96001;;;12.55;63.04
2711;BME280;20721;47.402;8.550;2022-12-24T02:51:11;96003;;;12.58;63.23
2711;BME280;20721;47.402;8.550;2022-12-24T02:52:28;96003;;;12.61;63.14
2711;BME280;20721;47.402;8.550;2022-12-24T02:53:11;96000;;;12.68;62.97
2711;BME280;20721;47.402;8.550;2022-12-24T02:54:11;96007;;;12.64;63.00
2711;BME280;20721;47.402;8.550;2022-12-24T02:56:16;96014;;;12.63;63.18
2711;BME280;20721;47.402;8.550;2022-12-24T03:00:12;96013;;;12.82;62.81
2711;BME280;20721;47.402;8.550;2022-12-24T03:01:19;96013;;;12.66;62.72
2711;BME280;20721;47.402;8.550;2022-12-24T03:04:16;96008;;;12.43;63.75
2711;BME280;20721;47.402;8.550;2022-12-24T03:06:15;96014;;;12.56;63.60
2711;BME280;20721;47.402;8.550;2022-12-24T03:07:14;96010;;;12.61;63.56
2711;BME280;20721;47.402;8.550;2022-12-24T03:09:30;96013;;;12.63;63.55
2711;BME280;20721;47.402;8.550;2022-12-24T03:11:12;96015;;;12.45;64.09
2711;BME280;20721;47.402;8.550;2022-12-24T03:12:13;96019;;;12.37;64.37
2711;BME280;20721;47.402;8.550;2022-12-24T03:13:14;96015;;;12.38;64.37
2711;BME280;20721;47.402;8.550;2022-12-24T03:14:11;96011;;;12.35;64.47
2711;BME280;20721;47.402;8.550;2022-12-24T03:15:13;96003;;;12.29;64.73
2711;BME280;20721;47.402;8.550;2022-12-24T03:16:13;96002;;;12.22;64.91
2711;BME280;20721;47.402;8.550;2022-12-24T03:17:11;96002;;;12.25;64.85
2711;BME280;20721;47.402;8.550;2022-12-24T03:18:13;96002;;;12.27;64.93
2711;BME280;20721;47.402;8.550;2022-12-24T03:19:11;96007;;;12.34;64.69
2711;BME280;20721;47.402;8.550;2022-12-24T03:20:12;96010;;;12.38;64.51
2711;BME280;20721;47.402;8.550;2022-12-24T03:21:15;96011;;;12.33;64.64
2711;BME280;20721;47.402;8.550;2022-12-24T03:22:11;96007;;;12.38;64.68
2711;BME280;20721;47.402;8.550;2022-12-24T03:23:11;96008;;;12.47;64.53
2711;BME280;20721;47.402;8.550;2022-12-24T03:24:11;96012;;;12.57;64.19
2711;BME280;20721;47.402;8.550;2022-12-24T03:25:11;96010;;;12.69;63.99
2711;BME280;20721;47.402;8.550;2022-12-24T03:26:12;96002;;;12.66;63.85
2711;BME280;20721;47.402;8.550;2022-12-24T03:27:11;96003;;;12.54;64.13
2711;BME280;20721;47.402;8.550;2022-12-24T03:28:13;96005;;;12.51;64.43
2711;BME280;20721;47.402;8.550;2022-12-24T03:29:11;96005;;;12.44;64.55
2711;BME280;20721;47.402;8.550;2022-12-24T03:30:12;95998;;;12.45;64.67
2711;BME280;20721;47.402;8.550;2022-12-24T03:31:12;95998;;;12.50;64.52
2711;BME280;20721;47.402;8.550;2022-12-24T03:33:12;96001;;;12.47;64.62
2711;BME280;20721;47.402;8.550;2022-12-24T03:34:12;96011;;;12.39;64.82
2711;BME280;20721;47.402;8.550;2022-12-24T03:35:11;96013;;;12.37;65.16
2711;BME280;20721;47.402;8.550;2022-12-24T03:36:12;96017;;;12.43;64.94
2711;BME280;20721;47.402;8.550;2022-12-24T03:38:11;96009;;;12.46;65.20
2711;BME280;20721;47.402;8.550;2022-12-24T03:39:11;96010;;;12.52;64.91
2711;BME280;20721;47.402;8.550;2022-12-24T03:40:11;96011;;;12.54;64.85
2711;BME280;20721;47.402;8.550;2022-12-24T03:41:11;96014;;;12.63;64.96
2711;BME280;20721;47.402;8.550;2022-12-24T03:42:11;96015;;;12.67;64.71
2711;BME280;20721;47.402;8.550;2022-12-24T03:43:11;96020;;;12.73;64.71
2711;BME280;20721;47.402;8.550;2022-12-24T03:44:11;96024;;;12.78;64.40
2711;BME280;20721;47.402;8.550;2022-12-24T03:45:14;96022;;;12.80;64.25
2711;BME280;20721;47.402;8.550;2022-12-24T03:46:12;96033;;;12.86;64.17
2711;BME280;20721;47.402;8.550;2022-12-24T03:47:12;96032;;;12.88;63.80
2711;BME280;20721;47.402;8.550;2022-12-24T03:48:11;96034;;;12.91;63.95
2711;BME280;20721;47.402;8.550;2022-12-24T03:50:11;96021;;;12.90;63.71
2711;BME280;20721;47.402;8.550;2022-12-24T03:51:16;96016;;;12.92;63.76
2711;BME280;20721;47.402;8.550;2022-12-24T03:52:12;96012;;;12.94;63.72
2711;BME280;20721;47.402;8.550;2022-12-24T03:53:11;96011;;;12.93;63.53
2711;BME280;20721;47.402;8.550;2022-12-24T03:54:11;96008;;;12.92;63.48
2711;BME280;20721;47.402;8.550;2022-12-24T03:55:12;96015;;;12.83;63.44
2711;BME280;20721;47.402;8.550;2022-12-24T03:56:12;96018;;;12.70;63.63
2711;BME280;20721;47.402;8.550;2022-12-24T03:57:12;96023;;;12.55;64.14
2711;BME280;20721;47.402;8.550;2022-12-24T03:58:11;96019;;;12.48;64.30
2711;BME280;20721;47.402;8.550;2022-12-24T03:59:11;96023;;;12.51;64.41
2711;BME280;20721;47.402;8.550;2022-12-24T04:00:12;96025;;;12.52;64.43
2711;BME280;20721;47.402;8.550;2022-12-24T04:01:12;96023;;;12.55;64.47
2711;BME280;20721;47.402;8.550;2022-12-24T04:03:12;96027;;;12.49;64.52
2711;BME280;20721;47.402;8.550;2022-12-24T04:04:11;96029;;;12.33;64.59
2711;BME280;20721;47.402;8.550;2022-12-24T04:05:13;96028;;;12.28;64.86
2711;BME280;20721;47.402;8.550;2022-12-24T04:06:13;96040;;;12.22;65.27
2711;BME280;20721;47.402;8.550;2022-12-24T04:07:12;96038;;;12.28;65.20
2711;BME280;20721;47.402;8.550;2022-12-24T04:08:11;96036;;;12.37;65.33
2711;BME280;20721;47.402;8.550;2022-12-24T04:09:11;96033;;;12.47;65.07
2711;BME280;20721;47.402;8.550;2022-12-24T04:10:13;96033;;;12.58;64.74
2711;BME280;20721;47.402;8.550;2022-12-24T04:11:13;96034;;;12.67;64.32
2711;BME280;20721;47.402;8.550;2022-12-24T04:12:12;96035;;;12.78;64.45
2711;BME280;20721;47.402;8.550;2022-12-24T04:13:11;96037;;;12.86;64.30
2711;BME280;20721;47.402;8.550;2022-12-24T04:14:11;96033;;;12.92;63.71
2711;BME280;20721;47.402;8.550;2022-12-24T04:15:12;96030;;;12.82;63.48
2711;BME280;20721;47.402;8.550;2022-12-24T04:16:13;96024;;;12.77;63.79
2711;BME280;20721;47.402;8.550;2022-12-24T04:17:12;96026;;;12.76;64.15
2711;BME280;20721;47.402;8.550;2022-12-24T04:18:12;96019;;;12.75;64.02
2711;BME280;20721;47.402;8.550;2022-12-24T04:19:12;96026;;;12.77;64.09
2711;BME280;20721;47.402;8.550;2022-12-24T04:22:14;96029;;;12.76;63.94
2711;BME280;20721;47.402;8.550;2022-12-24T04:23:12;96036;;;12.74;63.99
2711;BME280;20721;47.402;8.550;2022-12-24T04:24:12;96043;;;12.70;64.11
2711;BME280;20721;47.402;8.550;2022-12-24T04:25:12;96043;;;12.58;64.41
2711;BME280;20721;47.402;8.550;2022-12-24T04:27:12;96050;;;12.61;64.43
2711;BME280;20721;47.402;8.550;2022-12-24T04:28:12;96054;;;12.65;64.44
2711;BME280;20721;47.402;8.550;2022-12-24T04:29:12;96055;;;12.69;64.52
2711;BME280;20721;47.402;8.550;2022-12-24T04:30:12;96054;;;12.67;64.28
2711;BME280;20721;47.402;8.550;2022-12-24T04:31:13;96046;;;12.71;64.19
2711;BME280;20721;47.402;8.550;2022-12-24T04:32:12;96044;;;12.61;64.15
2711;BME280;20721;47.402;8.550;2022-12-24T04:33:12;96035;;;12.57;64.72
2711;BME280;20721;47.402;8.550;2022-12-24T04:34:12;96039;;;12.62;64.75
2711;BME280;20721;47.402;8.550;2022-12-24T04:35:12;96039;;;12.68;64.88
2711;BME280;20721;47.402;8.550;2022-12-24T04:36:13;96045;;;12.73;64.55
2711;BME280;20721;47.402;8.550;2022-12-24T04:37:12;96057;;;12.77;64.41
2711;BME280;20721;47.402;8.550;2022-12-24T04:38:12;96059;;;12.79;64.43
2711;BME280;20721;47.402;8.550;2022-12-24T04:39:12;96060;;;12.82;64.48
2711;BME280;20721;47.402;8.550;2022-12-24T04:40:12;96065;;;12.87;64.20
2711;BME280;20721;47.402;8.550;2022-12-24T04:41:21;96065;;;12.90;64.21
2711;BME280;20721;47.402;8.550;2022-12-24T04:42:12;96061;;;12.95;64.47
2711;BME280;20721;47.402;8.550;2022-12-24T04:43:12;96063;;;12.99;64.16
2711;BME280;20721;47.402;8.550;2022-12-24T04:44:12;96061;;;12.97;63.98
2711;BME280;20721;47.402;8.550;2022-12-24T04:45:12;96061;;;12.94;63.88
2711;BME280;20721;47.402;8.550;2022-12-24T04:46:15;96060;;;12.92;63.75
2711;BME280;20721;47.402;8.550;2022-12-24T04:47:12;96066;;;12.93;63.80
2711;BME280;20721;47.402;8.550;2022-12-24T04:48:12;96062;;;12.88;64.00
2711;BME280;20721;47.402;8.550;2022-12-24T04:49:12;96061;;;12.82;64.15
2711;BME280;20721;47.402;8.550;2022-12-24T04:50:12;96052;;;12.80;64.14
2711;BME280;20721;47.402;8.550;2022-12-24T04:51:12;96056;;;12.77;64.08
2711;BME280;20721;47.402;8.550;2022-12-24T04:52:12;96055;;;12.74;64.06
2711;BME280;20721;47.402;8.550;2022-12-24T04:53:13;96064;;;12.67;64.23
2711;BME280;20721;47.402;8.550;2022-12-24T04:54:12;96062;;;12.55;64.29
2711;BME280;20721;47.402;8.550;2022-12-24T04:55:12;96056;;;12.53;64.55
2711;BME280;20721;47.402;8.550;2022-12-24T04:56:12;96057;;;12.45;64.61
2711;BME280;20721;47.402;8.550;2022-12-24T04:57:12;96057;;;12.38;64.59
2711;BME280;20721;47.402;8.550;2022-12-24T04:58:12;96054;;;12.31;64.87
2711;BME280;20721;47.402;8.550;2022-12-24T05:00:12;96055;;;12.33;65.03
2711;BME280;20721;47.402;8.550;2022-12-24T05:01:13;96060;;;12.38;64.98
2711;BME280;20721;47.402;8.550;2022-12-24T05:02:12;96060;;;12.47;64.75
2711;BME280;20721;47.402;8.550;2022-12-24T05:03:12;96065;;;12.44;64.43
2711;BME280;20721;47.402;8.550;2022-12-24T05:04:12;96067;;;12.43;64.46
2711;BME280;20721;47.402;8.550;2022-12-24T05:05:12;96068;;;12.38;64.53
2711;BME280;20721;47.402;8.550;2022-12-24T05:06:13;96068;;;12.44;64.21
2711;BME280;20721;47.402;8.550;2022-12-24T05:07:12;96065;;;12.53;64.19
2711;BME280;20721;47.402;8.550;2022-12-24T05:08:12;96067;;;12.61;63.91
2711;BME280;20721;47.402;8.550;2022-12-24T05:09:12;96073;;;12.70;63.74
2711;BME280;20721;47.402;8.550;2022-12-24T05:10:12;96075;;;12.75;63.03
2711;BME280;20721;47.402;8.550;2022-12-24T05:11:14;96081;;;12.83;62.67
2711;BME280;20721;47.402;8.550;2022-12-24T05:12:12;96084;;;12.84;62.07
2711;BME280;20721;47.402;8.550;2022-12-24T05:14:12;96088;;;12.83;61.66
2711;BME280;20721;47.402;8.550;2022-12-24T05:15:12;96090;;;12.82;61.55
2711;BME280;20721;47.402;8.550;2022-12-24T05:16:12;96092;;;12.80;61.00
2711;BME280;20721;47.402;8.550;2022-12-24T05:17:12;96090;;;12.79;60.62
2711;BME280;20721;47.402;8.550;2022-12-24T05:19:12;96095;;;12.80;60.31
2711;BME280;20721;47.402;8.550;2022-12-24T05:20:12;96095;;;12.82;60.37
2711;BME280;20721;47.402;8.550;2022-12-24T05:21:12;96094;;;12.81;59.93
2711;BME280;20721;47.402;8.550;2022-12-24T05:22:22;96090;;;12.80;60.13
2711;BME280;20721;47.402;8.550;2022-12-24T05:23:23;96090;;;12.76;59.49
2711;BME280;20721;47.402;8.550;2022-12-24T05:24:22;96091;;;12.75;59.47
2711;BME280;20721;47.402;8.550;2022-12-24T05:25:22;96089;;;12.74;59.43
2711;BME280;20721;47.402;8.550;2022-12-24T05:26:26;96094;;;12.76;59.41
2711;BME280;20721;47.402;8.550;2022-12-24T05:27:12;96094;;;12.77;59.67
2711;BME280;20721;47.402;8.550;2022-12-24T05:28:12;96096;;;12.81;59.43
2711;BME280;20721;47.402;8.550;2022-12-24T05:30:12;96098;;;12.84;59.39
2711;BME280;20721;47.402;8.550;2022-12-24T05:31:12;96102;;;12.86;59.38
2711;BME280;20721;47.402;8.550;2022-12-24T05:32:12;96100;;;12.85;59.14
2711;BME280;20721;47.402;8.550;2022-12-24T05:33:12;96105;;;12.88;58.96
2711;BME280;20721;47.402;8.550;2022-12-24T05:34:12;96102;;;12.82;58.22
2711;BME280;20721;47.402;8.550;2022-12-24T05:35:12;96101;;;12.81;58.11
2711;BME280;20721;47.402;8.550;2022-12-24T05:37:12;96104;;;12.82;58.43
2711;BME280;20721;47.402;8.550;2022-12-24T05:38:12;96104;;;12.86;58.87
2711;BME280;20721;47.402;8.550;2022-12-24T05:39:20;96098;;;12.88;58.40
2711;BME280;20721;47.402;8.550;2022-12-24T05:40:12;96100;;;12.89;58.18
2711;BME280;20721;47.402;8.550;2022-12-24T05:41:12;96101;;;12.91;58.30
2711;BME280;20721;47.402;8.550;2022-12-24T05:42:12;96098;;;12.93;58.42
2711;BME280;20721;47.402;8.550;2022-12-24T05:43:12;96100;;;12.94;58.35
2711;BME280;20721;47.402;8.550;2022-12-24T05:44:12;96100;;;12.99;58.25
2711;BME280;20721;47.402;8.550;2022-12-24T05:45:12;96103;;;13.00;58.21
2711;BME280;20721;47.402;8.550;2022-12-24T05:46:13;96106;;;13.02;58.07
2711;BME280;20721;47.402;8.550;2022-12-24T05:47:12;96102;;;13.06;58.16
2711;BME280;20721;47.402;8.550;2022-12-24T05:48:12;96112;;;13.01;58.06
2711;BME280;20721;47.402;8.550;2022-12-24T05:49:12;96102;;;12.98;58.74
2711;BME280;20721;47.402;8.550;2022-12-24T05:50:12;96105;;;12.93;58.01
2711;BME280;20721;47.402;8.550;2022-12-24T05:51:12;96108;;;12.87;57.78
2711;BME280;20721;47.402;8.550;2022-12-24T05:52:12;96112;;;12.83;57.36
2711;BME280;20721;47.402;8.550;2022-12-24T05:53:12;96114;;;12.82;58.06
2711;BME280;20721;47.402;8.550;2022-12-24T05:54:12;96119;;;12.79;58.05
2711;BME280;20721;47.402;8.550;2022-12-24T05:55:12;96121;;;12.80;58.30
2711;BME280;20721;47.402;8.550;2022-12-24T05:57:12;96120;;;12.73;57.47
2711;BME280;20721;47.402;8.550;2022-12-24T05:58:12;96121;;;12.66;57.63
2711;BME280;20721;47.402;8.550;2022-12-24T05:59:12;96126;;;12.57;57.87
2711;BME280;20721;47.402;8.550;2022-12-24T06:00:12;96128;;;12.55;57.98
2711;BME280;20721;47.402;8.550;2022-12-24T06:01:12;96126;;;12.54;58.12
2711;BME280;20721;47.402;8.550;2022-12-24T06:02:12;96127;;;12.55;58.67
2711;BME280;20721;47.402;8.550;2022-12-24T06:03:12;96123;;;12.59;58.85
2711;BME280;20721;47.402;8.550;2022-12-24T06:04:12;96127;;;12.60;58.53
2711;BME280;20721;47.402;8.550;2022-12-24T06:05:12;96129;;;12.63;59.03
2711;BME280;20721;47.402;8.550;2022-12-24T06:06:14;96130;;;12.65;58.36
2711;BME280;20721;47.402;8.550;2022-12-24T06:07:12;96134;;;12.68;58.42
2711;BME280;20721;47.402;8.550;2022-12-24T06:09:12;96138;;;12.70;58.98
2711;BME280;20721;47.402;8.550;2022-12-24T06:10:12;96137;;;12.71;59.26
2711;BME280;20721;47.402;8.550;2022-12-24T06:11:12;96136;;;12.70;58.79
2711;BME280;20721;47.402;8.550;2022-12-24T06:12:12;96138;;;12.69;59.24
2711;BME280;20721;47.402;8.550;2022-12-24T06:14:12;96145;;;12.70;59.40
2711;BME280;20721;47.402;8.550;2022-12-24T06:15:12;96144;;;12.71;59.73
2711;BME280;20721;47.402;8.550;2022-12-24T06:16:13;96147;;;12.72;60.13
2711;BME280;20721;47.402;8.550;2022-12-24T06:17:12;96146;;;12.73;60.06
2711;BME280;20721;47.402;8.550;2022-12-24T06:19:12;96147;;;12.67;59.87
2711;BME280;20721;47.402;8.550;2022-12-24T06:20:12;96148;;;12.60;59.98
2711;BME280;20721;47.402;8.550;2022-12-24T06:21:12;96146;;;12.54;59.29
2711;BME280;20721;47.402;8.550;2022-12-24T06:22:12;96142;;;12.31;58.46
2711;BME280;20721;47.402;8.550;2022-12-24T06:23:12;96141;;;12.23;58.77
2711;BME280;20721;47.402;8.550;2022-12-24T06:24:12;96140;;;12.16;59.39
2711;BME280;20721;47.402;8.550;2022-12-24T06:25:12;96138;;;12.13;59.65
2711;BME280;20721;47.402;8.550;2022-12-24T06:26:13;96147;;;12.03;59.77